createdAt,value
2017-12-13T00:00:44.050Z,12.98
2017-12-13T00:03:11.682Z,13.32
2017-12-13T00:05:39.961Z,11.82
2017-12-13T00:08:07.576Z,12.48
2017-12-13T00:10:35.101Z,13.02
2017-12-13T00:13:03.699Z,11.90
2017-12-13T00:15:31.209Z,12.57
2017-12-13T00:17:58.709Z,13.38
2017-12-13T00:20:27.065Z,12.55
2017-12-13T00:22:54.603Z,11.65
2017-12-13T00:25:22.930Z,13.43
2017-12-13T00:27:51.191Z,13.88
2017-12-13T00:30:19.176Z,13.00
2017-12-13T00:32:46.734Z,12.98
2017-12-13T00:35:15.835Z,12.27
2017-12-13T00:37:44.060Z,12.55
2017-12-13T00:40:11.703Z,12.25
2017-12-13T00:42:39.601Z,11.65
2017-12-13T00:45:07.238Z,12.98
2017-12-13T00:47:34.717Z,13.10
2017-12-13T00:50:02.357Z,13.57
2017-12-13T00:52:30.774Z,11.52
2017-12-13T00:54:58.807Z,11.20
2017-12-13T00:57:26.495Z,11.35
2017-12-13T00:59:54.907Z,10.70
2017-12-13T01:02:23.940Z,12.75
2017-12-13T01:04:52.435Z,11.55
2017-12-13T01:07:20.162Z,12.02
2017-12-13T01:09:48.930Z,11.35
2017-12-13T01:12:18.204Z,10.13
2017-12-13T01:14:45.686Z,11.55
2017-12-13T01:17:13.165Z,11.63
2017-12-13T01:19:42.650Z,11.05
2017-12-13T01:22:10.181Z,10.93
2017-12-13T01:24:37.666Z,11.85
2017-12-13T01:27:05.579Z,13.10
2017-12-13T01:29:33.557Z,11.23
2017-12-13T01:32:01.570Z,11.82
2017-12-13T01:34:29.093Z,11.50
2017-12-13T01:36:56.592Z,12.00
2017-12-13T01:39:24.114Z,12.60
2017-12-13T01:41:51.620Z,12.20
2017-12-13T01:44:19.098Z,12.88
2017-12-13T01:46:46.592Z,14.18
2017-12-13T01:49:14.472Z,13.68
2017-12-13T01:51:42.350Z,14.70
2017-12-13T01:54:10.229Z,12.52
2017-12-13T01:56:37.789Z,11.60
2017-12-13T01:59:05.262Z,13.10
2017-12-13T02:01:32.740Z,13.45
2017-12-13T02:04:01.071Z,12.35
2017-12-13T02:06:28.692Z,13.15
2017-12-13T02:08:56.212Z,12.20
2017-12-13T02:11:23.744Z,12.30
2017-12-13T02:13:51.601Z,13.55
2017-12-13T02:16:19.214Z,12.68
2017-12-13T02:18:47.034Z,13.80
2017-12-13T02:21:14.516Z,13.77
2017-12-13T02:23:42.107Z,13.73
2017-12-13T02:26:09.696Z,13.75
2017-12-13T02:28:37.211Z,13.43
2017-12-13T02:31:05.450Z,12.70
2017-12-13T02:33:32.946Z,12.85
2017-12-13T02:36:02.665Z,13.00
2017-12-13T02:38:31.026Z,11.68
2017-12-13T02:41:01.793Z,10.68
2017-12-13T02:43:29.294Z,12.70
2017-12-13T02:45:56.770Z,11.75
2017-12-13T02:48:24.267Z,11.45
2017-12-13T02:50:51.747Z,11.20
2017-12-13T02:53:19.230Z,11.70
2017-12-13T02:55:46.763Z,10.68
2017-12-13T02:58:14.238Z,10.80
2017-12-13T03:00:41.723Z,12.70
2017-12-13T03:03:09.746Z,11.45
2017-12-13T03:05:37.348Z,9.63
2017-12-13T03:08:04.850Z,9.95
2017-12-13T03:10:32.754Z,10.50
2017-12-13T03:13:00.599Z,9.48
2017-12-13T03:15:28.086Z,7.87
2017-12-13T03:17:55.578Z,10.25
2017-12-13T03:20:23.819Z,9.32
2017-12-13T03:22:51.306Z,10.05
2017-12-13T03:25:19.285Z,8.38
2017-12-13T03:27:47.971Z,7.60
2017-12-13T03:30:15.510Z,8.25
2017-12-13T03:32:42.985Z,9.15
2017-12-13T03:35:10.531Z,8.65
2017-12-13T03:37:38.570Z,8.93
2017-12-13T03:40:06.229Z,8.35
2017-12-13T03:42:33.720Z,8.98
2017-12-13T03:45:01.297Z,7.90
2017-12-13T03:47:30.196Z,7.22
2017-12-13T03:49:58.569Z,6.82
2017-12-13T03:52:26.941Z,7.57
2017-12-13T03:54:54.542Z,9.13
2017-12-13T03:57:22.030Z,7.57
2017-12-13T03:59:50.019Z,7.57
2017-12-13T04:02:17.582Z,7.05
2017-12-13T04:04:45.810Z,7.30
2017-12-13T04:07:13.290Z,8.63
2017-12-13T04:09:41.151Z,6.90
2017-12-13T04:12:08.646Z,7.78
2017-12-13T04:14:36.316Z,7.25
2017-12-13T04:17:03.860Z,6.75
2017-12-13T04:19:31.420Z,7.18
2017-12-13T04:21:58.893Z,7.82
2017-12-13T04:24:27.165Z,7.37
2017-12-13T04:26:54.658Z,7.12
2017-12-13T04:29:23.013Z,6.75
2017-12-13T04:31:51.654Z,6.47
2017-12-13T04:34:19.238Z,6.82
2017-12-13T04:36:46.780Z,7.87
2017-12-13T04:39:14.906Z,6.82
2017-12-13T04:41:42.498Z,6.30
2017-12-13T04:44:09.979Z,6.20
2017-12-13T04:46:37.470Z,6.50
2017-12-13T04:49:05.711Z,7.35
2017-12-13T04:51:33.181Z,6.20
2017-12-13T04:54:00.714Z,7.25
2017-12-13T04:56:28.486Z,7.10
2017-12-13T04:58:55.963Z,7.70
2017-12-13T05:01:23.458Z,6.68
2017-12-13T05:03:51.800Z,6.55
2017-12-13T05:06:20.180Z,6.75
2017-12-13T05:08:47.792Z,4.28
2017-12-13T05:11:15.660Z,5.00
2017-12-13T05:13:44.166Z,7.45
2017-12-13T05:16:11.712Z,7.12
2017-12-13T05:18:39.311Z,8.35
2017-12-13T05:21:07.597Z,7.35
2017-12-13T05:23:35.085Z,7.15
2017-12-13T05:26:02.570Z,6.68
2017-12-13T05:28:30.084Z,7.28
2017-12-13T05:30:58.347Z,8.65
2017-12-13T05:33:26.264Z,7.68
2017-12-13T05:35:54.051Z,5.75
2017-12-13T05:38:22.131Z,6.30
2017-12-13T05:40:49.677Z,4.25
2017-12-13T05:43:17.161Z,6.05
2017-12-13T05:45:44.659Z,6.65
2017-12-13T05:48:12.300Z,6.25
2017-12-13T05:50:40.541Z,6.45
2017-12-13T05:53:08.049Z,5.97
2017-12-13T05:55:36.291Z,6.30
2017-12-13T05:58:03.783Z,5.40
2017-12-13T06:00:32.055Z,5.97
2017-12-13T06:03:02.145Z,5.25
2017-12-13T06:05:30.421Z,6.00
2017-12-13T06:07:58.460Z,4.97
2017-12-13T06:10:25.934Z,6.00
2017-12-13T06:12:53.413Z,5.37
2017-12-13T06:15:21.770Z,5.62
2017-12-13T06:17:49.653Z,4.65
2017-12-13T06:20:17.817Z,4.35
2017-12-13T06:22:45.351Z,4.70
2017-12-13T06:25:13.202Z,7.72
2017-12-13T06:27:40.763Z,5.30
2017-12-13T06:30:08.373Z,5.90
2017-12-13T06:32:36.006Z,5.00
2017-12-13T06:35:03.561Z,5.95
2017-12-13T06:37:31.467Z,4.70
2017-12-13T06:39:58.950Z,4.25
2017-12-13T06:42:27.026Z,4.18
2017-12-13T06:44:55.298Z,4.37
2017-12-13T06:47:22.774Z,4.68
2017-12-13T06:49:51.095Z,4.00
2017-12-13T06:52:19.690Z,4.10
2017-12-13T06:54:47.171Z,3.83
2017-12-13T06:57:15.211Z,3.92
2017-12-13T06:59:43.052Z,4.18
2017-12-13T07:02:10.650Z,3.33
2017-12-13T07:04:38.248Z,4.75
2017-12-13T07:07:05.856Z,5.18
2017-12-13T07:09:33.478Z,4.45
2017-12-13T07:12:00.961Z,4.90
2017-12-13T07:14:28.927Z,5.75
2017-12-13T07:16:56.814Z,4.62
2017-12-13T07:19:24.305Z,5.53
2017-12-13T07:21:52.134Z,5.55
2017-12-13T07:24:20.006Z,4.65
2017-12-13T07:26:47.488Z,2.90
2017-12-13T07:29:15.758Z,4.37
2017-12-13T07:31:43.237Z,4.75
2017-12-13T07:34:11.594Z,4.85
2017-12-13T07:36:39.107Z,5.78
2017-12-13T07:39:06.577Z,4.60
2017-12-13T07:41:34.067Z,5.75
2017-12-13T07:44:02.033Z,4.20
2017-12-13T07:46:29.526Z,4.30
2017-12-13T07:48:58.398Z,4.35
2017-12-13T07:51:26.686Z,4.50
2017-12-13T07:53:54.941Z,4.37
2017-12-13T07:56:23.632Z,4.65
2017-12-13T07:58:51.230Z,4.37
2017-12-13T08:01:18.722Z,3.30
2017-12-13T08:03:46.611Z,4.00
2017-12-13T08:06:14.903Z,3.20
2017-12-13T08:08:43.286Z,3.58
2017-12-13T08:11:11.341Z,4.25
2017-12-13T08:13:38.870Z,3.72
2017-12-13T08:16:06.827Z,3.65
2017-12-13T08:18:34.733Z,3.62
2017-12-13T08:21:02.708Z,3.60
2017-12-13T08:23:30.231Z,4.50
2017-12-13T08:25:57.910Z,3.35
2017-12-13T08:28:25.411Z,3.55
2017-12-13T08:30:53.739Z,3.60
2017-12-13T08:33:21.408Z,4.10
2017-12-13T08:35:48.885Z,3.37
2017-12-13T08:38:16.419Z,3.20
2017-12-13T08:40:44.039Z,3.42
2017-12-13T08:43:12.389Z,3.53
2017-12-13T08:45:39.910Z,3.78
2017-12-13T08:48:07.422Z,3.70
2017-12-13T08:50:34.904Z,3.35
2017-12-13T08:53:03.263Z,3.15
2017-12-13T08:55:30.824Z,2.90
2017-12-13T08:57:58.781Z,3.00
2017-12-13T09:00:26.270Z,3.22
2017-12-13T09:02:54.537Z,2.85
2017-12-13T09:05:23.301Z,2.05
2017-12-13T09:07:50.831Z,2.50
2017-12-13T09:10:18.348Z,2.60
2017-12-13T09:12:45.881Z,2.50
2017-12-13T09:15:13.406Z,3.15
2017-12-13T09:17:40.991Z,2.50
2017-12-13T09:20:08.736Z,2.35
2017-12-13T09:22:37.068Z,1.90
2017-12-13T09:25:05.369Z,2.70
2017-12-13T09:27:32.951Z,2.20
2017-12-13T09:30:00.425Z,1.90
2017-12-13T09:32:28.019Z,2.25
2017-12-13T09:34:55.664Z,2.15
2017-12-13T09:37:23.209Z,2.15
2017-12-13T09:39:50.888Z,1.98
2017-12-13T09:42:19.233Z,2.58
2017-12-13T09:44:47.220Z,2.40
2017-12-13T09:47:14.760Z,1.92
2017-12-13T09:49:42.298Z,2.08
2017-12-13T09:52:10.255Z,2.72
2017-12-13T09:54:38.557Z,2.17
2017-12-13T09:57:06.227Z,2.20
2017-12-13T09:59:33.769Z,2.05
2017-12-13T10:02:02.526Z,3.22
2017-12-13T10:04:31.420Z,2.33
2017-12-13T10:07:01.108Z,2.22
2017-12-13T10:09:29.809Z,2.85
2017-12-13T10:11:58.159Z,2.62
2017-12-13T10:14:25.646Z,2.60
2017-12-13T10:16:54.456Z,2.30
2017-12-13T10:19:23.207Z,2.95
2017-12-13T10:21:50.775Z,3.47
2017-12-13T10:24:18.651Z,3.72
2017-12-13T10:26:46.978Z,3.90
2017-12-13T10:29:14.530Z,3.42
2017-12-13T10:31:42.351Z,3.78
2017-12-13T10:34:10.001Z,3.53
2017-12-13T10:36:37.554Z,3.33
2017-12-13T10:39:05.466Z,3.72
2017-12-13T10:41:33.069Z,3.42
2017-12-13T10:44:00.867Z,2.95
2017-12-13T10:46:28.387Z,3.90
2017-12-13T10:48:56.017Z,3.70
2017-12-13T10:51:23.531Z,4.20
2017-12-13T10:53:51.027Z,4.30
2017-12-13T10:58:53.620Z,4.43
2017-12-13T11:01:21.217Z,3.67
2017-12-13T11:03:49.854Z,4.07
2017-12-13T11:06:17.381Z,4.25
2017-12-13T11:08:45.372Z,4.20
2017-12-13T11:11:12.910Z,3.70
2017-12-13T11:13:40.798Z,3.33
2017-12-13T11:16:08.368Z,4.25
2017-12-13T11:18:35.926Z,4.22
2017-12-13T11:21:03.471Z,3.87
2017-12-13T11:23:31.015Z,4.40
2017-12-13T11:25:58.509Z,3.53
2017-12-13T11:28:27.277Z,3.33
2017-12-13T11:30:55.010Z,3.10
2017-12-13T11:33:23.458Z,4.05
2017-12-13T11:35:51.614Z,3.45
2017-12-13T11:38:19.484Z,3.30
2017-12-13T11:40:47.812Z,4.10
2017-12-13T11:43:15.663Z,3.50
2017-12-13T11:45:43.237Z,4.05
2017-12-13T11:48:10.754Z,3.30
2017-12-13T11:50:39.148Z,4.47
2017-12-13T11:53:06.690Z,4.15
2017-12-13T11:55:34.207Z,5.05
2017-12-13T11:58:01.866Z,4.53
2017-12-13T12:00:29.433Z,4.40
2017-12-13T12:02:58.017Z,5.10
2017-12-13T12:05:26.316Z,4.55
2017-12-13T12:07:53.856Z,4.70
2017-12-13T12:10:21.443Z,5.22
2017-12-13T12:12:49.073Z,5.20
2017-12-13T12:15:16.591Z,5.30
2017-12-13T12:17:44.074Z,5.30
2017-12-13T12:20:11.551Z,5.30
2017-12-13T12:22:39.067Z,5.50
2017-12-13T12:25:07.006Z,4.53
2017-12-13T12:27:34.498Z,5.62
2017-12-13T12:30:02.021Z,5.70
2017-12-13T12:32:29.579Z,5.35
2017-12-13T12:34:57.952Z,5.30
2017-12-13T12:37:25.534Z,5.87
2017-12-13T12:39:53.846Z,4.53
2017-12-13T12:42:21.408Z,5.90
2017-12-13T12:44:49.349Z,5.18
2017-12-13T12:47:16.965Z,4.80
2017-12-13T12:49:44.492Z,5.55
2017-12-13T12:52:13.085Z,5.45
2017-12-13T12:54:41.794Z,5.72
2017-12-13T12:57:09.357Z,6.90
2017-12-13T12:59:37.586Z,7.07
2017-12-13T13:02:05.156Z,7.03
2017-12-13T13:04:32.800Z,7.28
2017-12-13T13:07:00.377Z,6.68
2017-12-13T13:09:27.973Z,7.05
2017-12-13T13:11:55.546Z,7.45
2017-12-13T13:14:23.194Z,7.60
2017-12-13T13:16:50.694Z,6.97
2017-12-13T13:19:19.087Z,7.78
2017-12-13T13:21:47.382Z,7.03
2017-12-13T13:24:15.278Z,6.78
2017-12-13T13:26:42.776Z,7.10
2017-12-13T13:29:11.132Z,6.40
2017-12-13T13:31:39.534Z,6.47
2017-12-13T13:34:07.189Z,6.78
2017-12-13T13:36:35.125Z,6.43
2017-12-13T13:39:02.948Z,6.80
2017-12-13T13:41:30.481Z,8.00
2017-12-13T13:43:58.953Z,8.60
2017-12-13T13:46:26.572Z,8.85
2017-12-13T13:48:54.561Z,8.63
2017-12-13T13:51:23.222Z,8.95
2017-12-13T13:53:50.706Z,9.55
2017-12-13T13:56:18.392Z,9.90
2017-12-13T13:58:46.155Z,11.00
2017-12-13T14:01:14.023Z,10.35
2017-12-13T14:03:41.766Z,11.00
2017-12-13T14:06:10.455Z,10.73
2017-12-13T14:08:38.295Z,9.02
2017-12-13T14:11:05.889Z,10.38
2017-12-13T14:13:33.382Z,12.00
2017-12-13T14:16:01.642Z,10.82
2017-12-13T14:18:29.258Z,12.82
2017-12-13T14:20:56.764Z,10.10
2017-12-13T14:23:25.110Z,12.23
2017-12-13T14:25:53.591Z,13.18
2017-12-13T14:28:23.768Z,13.50
2017-12-13T14:30:52.452Z,14.70
2017-12-13T14:33:19.990Z,11.60
2017-12-13T14:35:48.721Z,12.57
2017-12-13T14:38:16.287Z,10.13
2017-12-13T14:40:44.716Z,10.48
2017-12-13T14:43:13.247Z,9.82
2017-12-13T14:45:40.973Z,9.43
2017-12-13T14:48:10.343Z,11.07
2017-12-13T14:50:38.716Z,9.80
2017-12-13T14:53:06.967Z,8.18
2017-12-13T14:55:34.740Z,9.38
2017-12-13T14:58:02.497Z,8.82
2017-12-13T15:00:32.136Z,10.55
2017-12-13T15:03:00.428Z,10.07
2017-12-13T15:05:28.224Z,9.10
2017-12-13T15:07:56.536Z,9.10
2017-12-13T15:10:24.066Z,8.93
2017-12-13T15:12:51.627Z,9.60
2017-12-13T15:15:19.231Z,9.25
2017-12-13T15:17:47.610Z,9.60
2017-12-13T15:20:15.123Z,8.85
2017-12-13T15:22:43.782Z,8.10
2017-12-13T15:25:11.722Z,10.90
2017-12-13T15:27:39.642Z,10.00
2017-12-13T15:30:08.464Z,9.30
2017-12-13T15:32:35.983Z,10.20
2017-12-13T15:35:04.322Z,10.45
2017-12-13T15:37:32.223Z,9.00
2017-12-13T15:39:59.792Z,10.80
2017-12-13T15:42:28.124Z,10.85
2017-12-13T15:44:56.480Z,11.88
2017-12-13T15:47:24.033Z,10.35
2017-12-13T15:52:23.366Z,11.77
2017-12-13T15:54:51.004Z,11.43
2017-12-13T15:57:18.727Z,12.15
2017-12-13T15:59:46.246Z,11.02
2017-12-13T16:02:15.576Z,10.20
2017-12-13T16:04:43.106Z,10.60
2017-12-13T16:07:10.619Z,10.18
2017-12-13T16:09:38.968Z,9.85
2017-12-13T16:12:06.592Z,7.95
2017-12-13T16:14:34.154Z,8.00
2017-12-13T16:17:01.687Z,8.30
2017-12-13T16:19:29.963Z,8.45
2017-12-13T16:21:58.318Z,8.98
2017-12-13T16:24:26.447Z,8.15
2017-12-13T16:26:53.972Z,8.90
2017-12-13T16:29:23.128Z,9.10
2017-12-13T16:31:51.001Z,8.95
2017-12-13T16:34:19.682Z,8.80
2017-12-13T16:36:47.190Z,9.73
2017-12-13T16:39:14.802Z,7.45
2017-12-13T16:41:42.342Z,9.65
2017-12-13T16:44:09.822Z,8.55
2017-12-13T16:46:37.342Z,8.18
2017-12-13T16:49:05.217Z,9.10
2017-12-13T16:51:32.831Z,10.82
2017-12-13T16:54:00.342Z,9.23
2017-12-13T16:56:28.680Z,9.18
2017-12-13T16:58:56.293Z,10.65
2017-12-13T17:01:23.928Z,10.60
2017-12-13T17:03:51.517Z,8.52
2017-12-13T17:06:19.118Z,11.05
2017-12-13T17:08:46.998Z,11.73
2017-12-13T17:11:15.387Z,9.40
2017-12-13T17:13:43.307Z,9.98
2017-12-13T17:16:10.837Z,10.68
2017-12-13T17:18:38.322Z,9.30
2017-12-13T17:21:06.059Z,10.13
2017-12-13T17:23:33.962Z,8.85
2017-12-13T17:26:01.488Z,10.02
2017-12-13T17:28:29.088Z,9.57
2017-12-13T17:30:58.403Z,9.38
2017-12-13T17:33:26.399Z,7.82
2017-12-13T17:35:53.958Z,7.15
2017-12-13T17:38:22.595Z,9.30
2017-12-13T17:40:50.540Z,8.00
2017-12-13T17:43:18.462Z,7.35
2017-12-13T17:45:45.930Z,8.73
2017-12-13T17:48:13.796Z,8.02
2017-12-13T17:50:42.668Z,8.35
2017-12-13T17:53:10.229Z,9.25
2017-12-13T17:55:37.727Z,8.65
2017-12-13T17:58:05.329Z,8.52
2017-12-13T18:00:32.810Z,10.55
2017-12-13T18:03:00.316Z,9.82
2017-12-13T18:05:28.298Z,12.13
2017-12-13T18:07:55.807Z,11.85
2017-12-13T18:10:23.307Z,10.23
2017-12-13T18:12:50.823Z,11.90
2017-12-13T18:15:19.074Z,10.98
2017-12-13T18:17:46.903Z,10.75
2017-12-13T18:20:14.422Z,9.57
2017-12-13T18:22:43.977Z,10.35
2017-12-13T18:25:11.593Z,12.48
2017-12-13T18:27:39.866Z,12.23
2017-12-13T18:30:08.150Z,11.77
2017-12-13T18:32:37.194Z,10.30
2017-12-13T18:35:04.710Z,13.60
2017-12-13T18:37:33.091Z,12.15
2017-12-13T18:40:00.617Z,10.05
2017-12-13T18:42:31.261Z,10.10
2017-12-13T18:45:07.127Z,10.20
2017-12-13T18:47:34.840Z,9.98
2017-12-13T18:50:10.280Z,9.40
2017-12-13T18:52:38.380Z,11.15
2017-12-13T18:55:06.670Z,10.23
2017-12-13T18:57:35.914Z,9.68
2017-12-13T19:00:03.561Z,8.88
2017-12-13T19:02:31.050Z,8.13
2017-12-13T19:04:58.539Z,9.80
2017-12-13T19:07:26.383Z,6.75
2017-12-13T19:09:55.224Z,8.35
2017-12-13T19:12:23.038Z,8.10
2017-12-13T19:17:25.246Z,6.50
2017-12-13T19:19:52.757Z,7.35
2017-12-13T19:22:20.238Z,7.53
2017-12-13T19:24:47.726Z,6.97
2017-12-13T19:27:15.241Z,8.35
2017-12-13T19:29:42.722Z,4.75
2017-12-13T19:32:10.270Z,4.20
2017-12-13T19:34:37.781Z,3.00
2017-12-13T19:37:06.029Z,1.92
2017-12-13T19:39:33.518Z,1.73
2017-12-13T19:42:01.107Z,1.80
2017-12-13T19:44:28.582Z,2.10
2017-12-13T19:46:56.064Z,2.12
2017-12-13T19:49:23.635Z,1.80
2017-12-13T19:51:51.142Z,1.95
2017-12-13T19:56:53.058Z,1.50
2017-12-13T19:59:20.530Z,1.80
2017-12-13T20:01:48.010Z,1.90
2017-12-13T20:04:15.524Z,1.77
2017-12-13T20:06:42.998Z,1.83
2017-12-13T20:09:10.472Z,1.70
2017-12-13T20:11:38.741Z,2.25
2017-12-13T20:14:07.394Z,1.92
2017-12-13T20:16:34.963Z,2.05
2017-12-13T20:19:02.454Z,2.00
2017-12-13T20:21:30.702Z,1.73
2017-12-13T20:23:58.220Z,1.90
2017-12-13T20:26:25.741Z,2.85
2017-12-13T20:28:53.986Z,2.67
2017-12-13T20:31:21.470Z,2.30
2017-12-13T20:33:49.302Z,2.67
2017-12-13T20:36:17.181Z,3.00
2017-12-13T20:38:44.954Z,2.70
2017-12-13T20:41:12.426Z,2.80
2017-12-13T20:43:39.938Z,3.05
2017-12-13T20:46:08.229Z,4.03
2017-12-13T20:48:36.576Z,2.97
2017-12-13T20:51:04.055Z,2.80
2017-12-13T20:53:31.530Z,2.85
2017-12-13T20:55:59.020Z,2.33
2017-12-13T20:58:26.743Z,1.95
2017-12-13T21:00:54.300Z,2.50
2017-12-13T21:03:21.900Z,2.00
2017-12-13T21:05:50.526Z,2.80
2017-12-13T21:08:18.022Z,2.72
2017-12-13T21:10:45.606Z,2.53
2017-12-13T21:13:13.850Z,2.70
2017-12-13T21:15:41.331Z,2.28
2017-12-13T21:18:08.835Z,2.22
2017-12-13T21:20:36.310Z,2.72
2017-12-13T21:23:03.786Z,2.37
2017-12-13T21:25:31.350Z,3.28
2017-12-13T21:27:58.826Z,2.40
2017-12-13T21:30:26.554Z,1.98
2017-12-13T21:32:54.212Z,2.67
2017-12-13T21:35:21.989Z,2.55
2017-12-13T21:37:49.458Z,2.70
2017-12-13T21:40:17.306Z,2.78
2017-12-13T21:42:44.868Z,3.00
2017-12-13T21:45:12.359Z,2.83
2017-12-13T21:47:39.847Z,3.08
2017-12-13T21:50:07.350Z,3.22
2017-12-13T21:52:34.845Z,3.92
2017-12-13T21:55:03.126Z,3.75
2017-12-13T21:57:31.373Z,3.05
2017-12-13T21:59:58.858Z,3.53
2017-12-13T22:02:27.145Z,2.92
2017-12-13T22:04:54.622Z,2.67
2017-12-13T22:07:22.414Z,3.22
2017-12-13T22:09:50.286Z,2.37
2017-12-13T22:12:17.840Z,3.33
2017-12-13T22:14:45.314Z,2.03
2017-12-13T22:17:12.819Z,2.30
2017-12-13T22:19:40.409Z,1.90
2017-12-13T22:22:07.886Z,1.80
2017-12-13T22:24:35.374Z,2.20
2017-12-13T22:27:03.643Z,2.47
2017-12-13T22:29:31.894Z,2.15
2017-12-13T22:31:59.379Z,2.40
2017-12-13T22:34:27.719Z,2.45
2017-12-13T22:36:55.595Z,2.15
2017-12-13T22:39:23.086Z,2.83
2017-12-13T22:41:51.359Z,2.20
2017-12-13T22:44:18.830Z,2.95
2017-12-13T22:46:47.366Z,2.12
2017-12-13T22:49:15.268Z,2.15
2017-12-13T22:51:43.925Z,2.25
2017-12-13T22:54:11.419Z,1.98
2017-12-13T22:56:39.661Z,2.65
2017-12-13T22:59:07.138Z,1.87
2017-12-13T23:01:35.499Z,2.00
2017-12-13T23:04:03.007Z,2.30
2017-12-13T23:06:30.486Z,2.08
2017-12-13T23:08:57.969Z,1.95
2017-12-13T23:11:25.465Z,1.90
2017-12-13T23:13:54.020Z,2.40
2017-12-13T23:16:21.541Z,2.10
2017-12-13T23:18:49.390Z,2.92
2017-12-13T23:21:16.862Z,1.92
2017-12-13T23:23:44.357Z,2.28
2017-12-13T23:26:11.862Z,2.65
2017-12-13T23:28:39.464Z,2.33
2017-12-13T23:31:06.965Z,2.33
2017-12-13T23:33:35.205Z,1.77
2017-12-13T23:38:36.966Z,2.20
2017-12-13T23:41:04.438Z,2.25
2017-12-13T23:43:31.961Z,2.25
2017-12-13T23:45:59.434Z,2.20
2017-12-13T23:48:27.709Z,2.05
2017-12-13T23:50:55.587Z,1.95
2017-12-13T23:53:23.071Z,1.98
2017-12-13T23:55:51.430Z,1.85
2017-12-13T23:58:19.346Z,3.03
